Pagrindinis puslapis
METAR-TAF:

METAR-TAF

Oro uostai :

Bolonija, Italija

platuma: 44-32N, ilguma: 011-18E, Aukštis: 36 m

Dabartinis oras

Ataskaita buvo paskelbta 32 minutes, ne 20:20 UTC
Vėjas 4 kt iš Vakarų
Temperatūra 6°C
Drėgmė 93%
Slėgis 1023 hPa
Matomumas 10 km arba daugiau
Su prošvaistėmis ne aukštis 1500 ft
Su prošvaistėmis ne aukštis 3000 ft

METAR: LIPE 182020Z 26004KT 9999 BKN015 BKN030 06/05 Q1023

Laikas: 21:52 (20:52 UTC)

Prognozė

Ataskaita buvo paskelbta 3 valandos ir 52 minutes, ne 17:00 UTC
Prognozė galioja nuo 18 metu 18 UTC su 19 metu 18 UTC
Vėjas 5 kt nuo kintamojo kryptimis
Matomumas: 2000 m
Mažai debesys ne aukštis 1000 ft
Su prošvaistėmis ne aukštis 1500 ft
rūkana
Laikinai
nuo 18 metu 18 UTC su 18 metu 24 UTC
Matomumas: 2000 m
lietus
Tapsmas
nuo 19 metu 06 UTC su 19 metu 08 UTC
Vėjas 10 kt iš Rytų

TAF: LIPE 181700Z 1818/1918 VRB05KT 2000 BR FEW010 BKN015 TEMPO 1818/1824 2000 RA BECMG 1906/1908 08010KT

Orai ataskaitas ir orų prognozės (METAR, TAF).

turimą stotys yra geltonos ir raudonos taškus žemėlapyje.

Perkelti pele per norėdami pamatyti stoties vardą.

Tada spustelėkite, norėdami matyti oro stebėjimo ir prognozės.

Norėdami pakeisti žemėlapį: spustelėkite ant žalios mygtukų su juodo kryžiaus žemyn,; žalią mygtuką su brūkšneliu, jei norite nutolinti; arba žalių rodyklių gretimoms žemėlapius.


METAR-TAF: